X  Lukk Metar værinformasjon om luftfart     ENAL Ålesund Airport, Vigra
Temperatur
16°C Temperatur
13°C Duggpunkt
83% Luftfuktighet



Vind
3 M/S
6 MPT
10 KM/T
5 KNP



240°
VSV
Nåværende forhold

For det meste Overskyet For det meste Overskyet
Trykk 1009.92 (hPa) - 29.82 (inHg)
Sikt 6.2 (mil) - 10 (km)
Flyplass
Flyplass-kode ENAL

Plassering: Ålesund Airport, Vigra
Avstand: 58 (km)

Metar:
ENAL 021750Z 24005KT 220V290 9999 BKN053 16/13 Q1010

Tid: 02-07-2022 19:50 CEST